Time;durP1;ratioP1;P1;durP2;ratioP2;P2;SDS_P1;SDS_P2;PMS_P1;PMS_P2;Temp;Humidity;BMP_temperature;BMP_pressure;BME280_temperature;BME280_humidity;BME280_pressure;Samples;Min_cycle;Max_cycle;Signal;HPM_P1;HPM_P2
2023/11/11 00:01:24;;;;;;;7.20;3.63;;;6.30;99.90;;;;;;5010815;28;20160;-39
2023/11/11 00:03:51;;;;;;;6.85;3.88;;;6.30;99.90;;;;;;5013880;28;20054;-40
2023/11/11 00:06:19;;;;;;;6.00;3.30;;;6.20;99.90;;;;;;5014150;28;20096;-42
2023/11/11 00:08:46;;;;;;;5.82;3.30;;;6.20;99.90;;;;;;5017993;28;20052;-42
2023/11/11 00:11:13;;;;;;;4.70;3.40;;;6.20;99.90;;;;;;5010393;28;20144;-40
2023/11/11 00:13:40;;;;;;;5.88;3.40;;;6.10;99.90;;;;;;5012944;28;20514;-41
2023/11/11 00:16:07;;;;;;;8.65;4.05;;;6.00;99.90;;;;;;5013993;28;20050;-43
2023/11/11 00:18:36;;;;;;;10.63;3.05;;;6.00;99.90;;;;;;5022137;28;20120;-40
2023/11/11 00:21:04;;;;;;;5.47;2.97;;;6.00;99.90;;;;;;5015608;28;20053;-41
2023/11/11 00:23:31;;;;;;;7.22;3.17;;;6.00;99.90;;;;;;5018567;28;20069;-42
2023/11/11 00:25:58;;;;;;;7.05;2.92;;;6.10;99.90;;;;;;5022734;28;20045;-40
2023/11/11 00:28:27;;;;;;;6.78;3.00;;;6.10;99.90;;;;;;5021048;28;20112;-39
2023/11/11 00:30:54;;;;;;;5.25;3.15;;;6.20;99.90;;;;;;5020013;28;20486;-38
2023/11/11 00:33:22;;;;;;;4.65;3.03;;;6.20;99.90;;;;;;5013179;28;20423;-42
2023/11/11 00:35:50;;;;;;;6.70;3.05;;;6.20;99.90;;;;;;5015527;28;20470;-40
2023/11/11 00:38:17;;;;;;;8.45;2.90;;;6.30;99.90;;;;;;5014298;28;20453;-41
2023/11/11 00:40:44;;;;;;;4.80;2.90;;;6.30;99.90;;;;;;5011735;28;20058;-42
2023/11/11 00:43:11;;;;;;;5.82;3.28;;;6.50;99.90;;;;;;5011739;28;20046;-43
2023/11/11 00:45:38;;;;;;;5.88;3.10;;;6.50;99.90;;;;;;5009033;28;20444;-43
2023/11/11 00:48:06;;;;;;;5.15;3.25;;;6.60;99.90;;;;;;5013268;28;20101;-39
2023/11/11 00:50:33;;;;;;;9.50;3.03;;;6.70;99.90;;;;;;5011163;28;20060;-39
2023/11/11 00:53:01;;;;;;;4.40;2.65;;;6.70;99.90;;;;;;5009912;28;20534;-39
2023/11/11 00:55:28;;;;;;;6.82;3.00;;;6.80;99.90;;;;;;5012926;28;20038;-42
2023/11/11 00:57:56;;;;;;;8.27;3.30;;;6.80;99.90;;;;;;5012921;28;20050;-41
2023/11/11 01:00:23;;;;;;;5.97;2.97;;;6.80;99.90;;;;;;5012445;28;20526;-40
2023/11/11 01:02:51;;;;;;;4.43;2.67;;;6.90;99.90;;;;;;5008349;28;20042;-43
2023/11/11 01:05:19;;;;;;;4.63;2.85;;;6.90;99.90;;;;;;5028255;28;20090;-42
2023/11/11 01:07:46;;;;;;;6.60;3.25;;;6.90;99.90;;;;;;5025815;28;20132;-41
2023/11/11 01:10:13;;;;;;;4.50;2.58;;;6.90;99.90;;;;;;5031123;28;20053;-40
2023/11/11 01:12:41;;;;;;;6.38;2.80;;;6.90;99.90;;;;;;5023070;28;20348;-39
2023/11/11 01:15:09;;;;;;;8.57;3.22;;;7.00;99.90;;;;;;5022275;28;20049;-42
2023/11/11 01:17:36;;;;;;;5.07;3.22;;;6.90;99.90;;;;;;5024054;28;20046;-42
2023/11/11 01:20:04;;;;;;;6.55;3.20;;;7.00;99.90;;;;;;5024723;28;20046;-40
2023/11/11 01:22:31;;;;;;;5.82;3.08;;;7.00;99.90;;;;;;5016341;28;20054;-41
2023/11/11 01:24:59;;;;;;;6.45;2.90;;;7.00;99.90;;;;;;5011842;28;20046;-39
2023/11/11 01:27:31;;;;;;;5.45;3.00;;;7.00;99.90;;;;;;5009027;28;20042;-39
2023/11/11 01:29:59;;;;;;;9.88;3.03;;;6.90;99.90;;;;;;5013222;28;20049;-40
2023/11/11 01:32:26;;;;;;;6.53;3.03;;;7.00;99.90;;;;;;5016186;28;20046;-41
2023/11/11 01:34:53;;;;;;;5.68;3.10;;;6.90;99.90;;;;;;5021842;28;20054;-42
2023/11/11 01:37:21;;;;;;;4.05;2.60;;;7.00;99.90;;;;;;5012521;28;20382;-42
2023/11/11 01:39:48;;;;;;;7.95;2.92;;;7.00;99.90;;;;;;5024884;28;20038;-42
2023/11/11 01:42:15;;;;;;;5.65;2.67;;;7.00;99.90;;;;;;5010992;28;20491;-39
2023/11/11 01:44:42;;;;;;;5.75;3.00;;;7.00;99.90;;;;;;5015113;28;20038;-40
2023/11/11 01:47:09;;;;;;;8.73;3.10;;;6.90;99.90;;;;;;5012842;28;20046;-40
2023/11/11 01:49:38;;;;;;;6.78;2.58;;;6.90;99.90;;;;;;5012729;28;20140;-43
2023/11/11 01:52:07;;;;;;;6.30;3.00;;;7.00;99.90;;;;;;5007424;28;20463;-40
2023/11/11 01:54:34;;;;;;;5.07;2.75;;;6.90;99.90;;;;;;5007062;28;20042;-38
2023/11/11 01:57:04;;;;;;;9.10;2.92;;;6.90;99.90;;;;;;5027106;28;20134;-42
2023/11/11 01:59:34;;;;;;;4.65;2.63;;;6.90;99.90;;;;;;5018476;28;20105;-43
2023/11/11 02:02:02;;;;;;;5.97;2.70;;;6.90;99.90;;;;;;5034418;28;20049;-41
2023/11/11 02:04:29;;;;;;;5.32;2.97;;;6.90;99.90;;;;;;5021557;28;20068;-40
2023/11/11 02:06:56;;;;;;;6.50;3.20;;;6.80;99.90;;;;;;5014521;28;20034;-42
2023/11/11 02:09:24;;;;;;;5.28;2.67;;;6.80;99.90;;;;;;5019041;28;20084;-43
2023/11/11 02:11:56;;;;;;;6.68;3.05;;;6.90;99.90;;;;;;5021755;28;20080;-43
2023/11/11 02:14:24;;;;;;;;;;;6.80;99.90;;;;;;5020056;28;20045;-40
2023/11/11 02:16:51;;;;;;;9.27;3.28;;;6.80;99.90;;;;;;5018981;28;19990;-41
2023/11/11 02:19:18;;;;;;;5.38;2.72;;;6.80;99.90;;;;;;5018364;28;20048;-40
2023/11/11 02:21:47;;;;;;;4.10;2.70;;;6.70;99.90;;;;;;5019947;28;20049;-41
2023/11/11 02:24:17;;;;;;;7.03;2.90;;;6.80;99.90;;;;;;5014254;28;20050;-39
2023/11/11 02:26:45;;;;;;;4.85;2.67;;;6.90;99.90;;;;;;5015242;28;20533;-37
2023/11/11 02:29:12;;;;;;;5.32;2.53;;;6.80;99.90;;;;;;5008905;28;20057;-41
2023/11/11 02:31:40;;;;;;;5.38;2.60;;;6.70;99.90;;;;;;5009792;28;20475;-39
2023/11/11 02:34:07;;;;;;;3.55;2.47;;;6.70;99.90;;;;;;5006830;28;20116;-40
2023/11/11 02:36:34;;;;;;;6.75;2.63;;;6.60;99.90;;;;;;5009661;28;20061;-42
2023/11/11 02:39:01;;;;;;;8.43;2.97;;;6.50;99.90;;;;;;5005691;28;20085;-45
2023/11/11 02:41:28;;;;;;;5.57;2.30;;;6.40;99.90;;;;;;5015870;28;20065;-41
2023/11/11 02:43:55;;;;;;;4.35;2.33;;;6.40;99.90;;;;;;5015948;28;20131;-39
2023/11/11 02:46:22;;;;;;;4.60;2.15;;;6.40;99.90;;;;;;5023891;28;20057;-40
2023/11/11 02:48:50;;;;;;;4.43;2.45;;;6.40;99.90;;;;;;5020116;28;20114;-40
2023/11/11 02:51:17;;;;;;;7.20;2.70;;;6.30;99.90;;;;;;5022035;28;20084;-44
2023/11/11 02:53:44;;;;;;;6.32;2.95;;;6.30;99.90;;;;;;5017822;28;20040;-40
2023/11/11 02:56:11;;;;;;;5.70;2.55;;;6.30;99.90;;;;;;5022205;28;20350;-43
2023/11/11 02:58:38;;;;;;;6.00;2.88;;;6.20;99.90;;;;;;5021266;28;20042;-41
2023/11/11 03:01:05;;;;;;;8.48;2.35;;;6.30;99.90;;;;;;5017350;28;20045;-42
2023/11/11 03:03:32;;;;;;;4.72;2.70;;;6.30;99.90;;;;;;5022558;28;20541;-41
2023/11/11 03:06:03;;;;;;;5.47;2.25;;;6.30;99.90;;;;;;5019140;28;20104;-42
2023/11/11 03:08:33;;;;;;;6.07;3.13;;;6.40;99.90;;;;;;5035549;28;20053;-40
2023/11/11 03:11:02;;;;;;;5.90;2.63;;;6.40;99.90;;;;;;5009378;28;20096;-42
2023/11/11 03:13:29;;;;;;;6.55;2.42;;;6.30;99.90;;;;;;5023297;28;20073;-42
2023/11/11 03:15:56;;;;;;;4.35;2.28;;;6.30;99.90;;;;;;5006209;28;20171;-39
2023/11/11 03:18:23;;;;;;;6.95;2.40;;;6.30;99.90;;;;;;5008877;28;20050;-39
2023/11/11 03:20:51;;;;;;;5.15;2.22;;;6.30;99.90;;;;;;5006177;28;20049;-41
2023/11/11 03:23:18;;;;;;;3.60;2.47;;;6.30;99.90;;;;;;5009276;28;20709;-39
2023/11/11 03:25:46;;;;;;;3.47;2.10;;;6.30;99.90;;;;;;5009277;28;20104;-43
2023/11/11 03:28:13;;;;;;;3.70;2.22;;;6.30;99.90;;;;;;5008241;28;20060;-40
2023/11/11 03:30:40;;;;;;;3.60;2.30;;;6.30;99.90;;;;;;5006670;28;20050;-41
2023/11/11 03:33:07;;;;;;;4.50;2.13;;;6.30;99.90;;;;;;5009506;28;20056;-44
2023/11/11 03:35:34;;;;;;;4.72;2.70;;;6.40;99.90;;;;;;5017146;28;20150;-38
2023/11/11 03:38:01;;;;;;;4.10;2.38;;;6.40;99.90;;;;;;5013793;28;20079;-40
2023/11/11 03:40:29;;;;;;;5.18;2.53;;;6.40;99.90;;;;;;5015961;28;20045;-40
2023/11/11 03:42:56;;;;;;;6.28;2.30;;;6.40;99.90;;;;;;5013468;28;20074;-40
2023/11/11 03:45:23;;;;;;;4.38;2.50;;;6.40;99.90;;;;;;5015991;28;20050;-40
2023/11/11 03:47:52;;;;;;;3.92;2.20;;;6.50;99.90;;;;;;5012117;28;20102;-40
2023/11/11 03:50:19;;;;;;;4.47;2.50;;;6.40;99.90;;;;;;5016824;28;20065;-44
2023/11/11 03:52:46;;;;;;;4.38;2.20;;;6.40;99.90;;;;;;5028142;28;20537;-41
2023/11/11 03:55:14;;;;;;;4.00;2.47;;;6.40;99.90;;;;;;5015386;28;20129;-40
2023/11/11 03:57:41;;;;;;;4.00;2.50;;;6.40;99.90;;;;;;5016488;28;20061;-39
2023/11/11 04:00:16;;;;;;;4.93;2.78;;;6.30;99.90;;;;;;5015300;28;20045;-43
2023/11/11 04:02:44;;;;;;;4.93;2.80;;;6.30;99.90;;;;;;5014292;28;20045;-42
2023/11/11 04:05:16;;;;;;;5.90;2.50;;;6.30;99.90;;;;;;5014741;28;20507;-43
2023/11/11 04:07:46;;;;;;;3.90;2.67;;;6.40;99.90;;;;;;5010480;28;20484;-40
2023/11/11 04:10:17;;;;;;;4.78;2.50;;;6.40;99.90;;;;;;5031031;28;20046;-39
2023/11/11 04:12:45;;;;;;;4.10;2.55;;;6.40;99.90;;;;;;5021806;28;20160;-44
2023/11/11 04:15:13;;;;;;;3.97;2.45;;;6.40;99.90;;;;;;5019940;28;20165;-40
2023/11/11 04:17:44;;;;;;;6.55;2.50;;;6.40;99.90;;;;;;5022639;28;20542;-43
2023/11/11 04:20:12;;;;;;;3.60;2.38;;;6.30;99.90;;;;;;5024900;28;20057;-41
2023/11/11 04:22:41;;;;;;;3.33;2.03;;;6.30;99.90;;;;;;5016760;28;20057;-40
2023/11/11 04:25:08;;;;;;;3.53;2.38;;;6.30;99.90;;;;;;5012109;28;20049;-41
2023/11/11 04:27:35;;;;;;;3.63;1.95;;;6.40;99.90;;;;;;5010223;28;20046;-41
2023/11/11 04:30:03;;;;;;;2.97;1.73;;;6.30;99.90;;;;;;5014358;28;20048;-38
2023/11/11 04:32:30;;;;;;;3.17;1.90;;;6.40;99.90;;;;;;5013071;28;20057;-39
2023/11/11 04:34:58;;;;;;;2.63;1.70;;;6.40;99.90;;;;;;5016904;28;20042;-45
2023/11/11 04:37:26;;;;;;;3.13;1.60;;;6.40;99.90;;;;;;5027023;28;20050;-38
2023/11/11 04:39:57;;;;;;;3.83;1.50;;;6.40;99.90;;;;;;5023323;28;20165;-40
2023/11/11 04:42:25;;;;;;;1.48;1.30;;;6.30;99.90;;;;;;5010465;28;20052;-41
2023/11/11 04:44:53;;;;;;;1.83;1.20;;;6.40;99.90;;;;;;5011833;28;20044;-40
2023/11/11 04:47:21;;;;;;;3.83;1.23;;;6.30;99.90;;;;;;5011352;28;20156;-43
2023/11/11 04:49:48;;;;;;;1.25;1.00;;;6.20;99.90;;;;;;5008811;28;20356;-41
2023/11/11 04:52:15;;;;;;;0.98;0.98;;;6.20;99.90;;;;;;5012365;28;20050;-41
2023/11/11 04:54:43;;;;;;;1.20;1.08;;;6.20;99.90;;;;;;5012218;28;20046;-39
2023/11/11 04:57:10;;;;;;;1.77;1.10;;;6.10;99.90;;;;;;5013294;28;20054;-40
2023/11/11 04:59:37;;;;;;;1.80;1.05;;;6.00;99.90;;;;;;5008132;28;20038;-41
2023/11/11 05:02:04;;;;;;;0.88;0.88;;;5.90;99.90;;;;;;5025852;28;20046;-41
2023/11/11 05:04:32;;;;;;;2.55;1.10;;;5.80;99.90;;;;;;5009239;28;20052;-42
2023/11/11 05:06:59;;;;;;;0.90;0.90;;;5.70;99.90;;;;;;5014914;28;20108;-38
2023/11/11 05:09:27;;;;;;;1.85;1.20;;;5.60;99.90;;;;;;5011312;28;20049;-40
2023/11/11 05:11:54;;;;;;;1.90;1.27;;;5.50;99.90;;;;;;5010106;28;20046;-41
2023/11/11 05:14:23;;;;;;;1.00;1.00;;;5.50;99.90;;;;;;5012809;28;20038;-39
2023/11/11 05:16:52;;;;;;;1.50;1.00;;;5.50;99.90;;;;;;5009737;28;20042;-39
2023/11/11 05:19:20;;;;;;;1.33;0.95;;;5.50;99.90;;;;;;5007731;28;20046;-41
2023/11/11 05:21:48;;;;;;;1.00;0.90;;;5.50;99.90;;;;;;5012460;28;20573;-39
2023/11/11 05:24:15;;;;;;;1.00;0.90;;;5.50;99.90;;;;;;5017422;28;20054;-43
2023/11/11 05:26:42;;;;;;;1.20;0.88;;;5.60;99.90;;;;;;5022065;28;20045;-40
2023/11/11 05:29:09;;;;;;;0.80;0.80;;;5.50;99.90;;;;;;5019508;28;20469;-41
2023/11/11 05:31:37;;;;;;;1.02;0.80;;;5.50;99.90;;;;;;5009225;28;20049;-43
2023/11/11 05:34:04;;;;;;;1.95;0.90;;;5.50;99.90;;;;;;5011166;28;20124;-41
2023/11/11 05:36:33;;;;;;;0.80;0.80;;;5.40;99.90;;;;;;5013251;28;20073;-40
2023/11/11 05:39:00;;;;;;;0.80;0.80;;;5.40;99.90;;;;;;5010338;28;20062;-40
2023/11/11 05:41:29;;;;;;;2.97;0.80;;;5.20;99.90;;;;;;5014706;28;20053;-42
2023/11/11 05:43:57;;;;;;;0.82;0.80;;;5.10;99.90;;;;;;5015612;28;20512;-39
2023/11/11 05:46:25;;;;;;;0.88;0.80;;;5.10;99.90;;;;;;5017176;28;20046;-39
2023/11/11 05:48:52;;;;;;;1.02;0.88;;;5.00;99.90;;;;;;5011004;28;20046;-40
2023/11/11 05:51:19;;;;;;;0.80;0.80;;;5.00;99.90;;;;;;5026056;28;20046;-43
2023/11/11 05:53:46;;;;;;;0.88;0.80;;;4.90;99.90;;;;;;5010046;28;20050;-41
2023/11/11 05:56:15;;;;;;;0.80;0.80;;;4.90;99.90;;;;;;5006805;28;20045;-43
2023/11/11 05:58:43;;;;;;;1.10;0.80;;;4.90;99.90;;;;;;5007538;28;20117;-39
2023/11/11 06:01:10;;;;;;;1.08;0.85;;;4.90;99.90;;;;;;5008602;28;20096;-41
2023/11/11 06:03:37;;;;;;;0.98;0.90;;;4.90;99.90;;;;;;5013592;28;20113;-40
2023/11/11 06:06:05;;;;;;;0.93;0.90;;;4.90;99.90;;;;;;5009815;28;20096;-40
2023/11/11 06:08:32;;;;;;;1.85;0.80;;;4.80;99.90;;;;;;5010703;28;20460;-40
2023/11/11 06:10:59;;;;;;;5.32;1.05;;;4.80;99.90;;;;;;5010174;28;20132;-39
2023/11/11 06:13:26;;;;;;;1.08;0.90;;;4.80;99.90;;;;;;5010903;28;20049;-41
2023/11/11 06:15:54;;;;;;;0.80;0.77;;;4.80;99.90;;;;;;5008759;28;20041;-42
2023/11/11 06:18:21;;;;;;;0.95;0.80;;;4.80;99.90;;;;;;5010113;28;20173;-38
2023/11/11 06:20:48;;;;;;;2.17;1.00;;;4.80;99.90;;;;;;5010459;28;20038;-38
2023/11/11 06:23:15;;;;;;;0.80;0.80;;;4.80;99.90;;;;;;5010099;28;21037;-39
2023/11/11 06:25:45;;;;;;;1.20;0.82;;;4.80;99.90;;;;;;5010981;28;20029;-40
2023/11/11 06:28:12;;;;;;;2.55;1.00;;;4.80;99.90;;;;;;5010460;28;20374;-42
2023/11/11 06:30:39;;;;;;;2.45;1.00;;;4.80;99.90;;;;;;5008322;28;20049;-41
2023/11/11 06:33:06;;;;;;;1.13;1.00;;;4.80;99.90;;;;;;5015401;28;20046;-42
2023/11/11 06:35:34;;;;;;;1.10;1.00;;;4.80;99.90;;;;;;5022552;28;20148;-44
2023/11/11 06:38:02;;;;;;;1.58;1.08;;;4.80;99.90;;;;;;5025124;28;20106;-42
2023/11/11 06:40:30;;;;;;;1.73;1.00;;;4.90;99.90;;;;;;5014450;28;20038;-41
2023/11/11 06:42:57;;;;;;;1.42;1.10;;;4.80;99.90;;;;;;5010121;28;20474;-40
2023/11/11 06:45:25;;;;;;;1.42;1.20;;;4.90;99.90;;;;;;5010099;28;20041;-42
2023/11/11 06:47:52;;;;;;;1.17;1.00;;;4.90;99.90;;;;;;5011001;28;20037;-42
2023/11/11 06:50:19;;;;;;;1.08;0.95;;;4.90;99.90;;;;;;5007313;28;20069;-41
2023/11/11 06:52:46;;;;;;;1.67;1.10;;;5.00;99.90;;;;;;5008720;28;20577;-40
2023/11/11 06:55:13;;;;;;;1.00;0.90;;;5.00;99.90;;;;;;5005276;28;20049;-40
2023/11/11 06:57:41;;;;;;;0.98;0.90;;;5.00;99.90;;;;;;5008028;28;20340;-41
2023/11/11 07:00:15;;;;;;;0.95;0.90;;;5.00;99.90;;;;;;5009798;28;20042;-43
2023/11/11 07:02:44;;;;;;;1.63;0.98;;;5.10;99.90;;;;;;5010958;28;20037;-39
2023/11/11 07:05:11;;;;;;;2.55;1.10;;;5.10;99.90;;;;;;5011777;28;20172;-38
2023/11/11 07:07:41;;;;;;;1.48;0.90;;;5.10;99.90;;;;;;5008833;28;20038;-39
2023/11/11 07:10:09;;;;;;;1.20;1.00;;;5.10;99.90;;;;;;5005554;28;20057;-39
2023/11/11 07:12:36;;;;;;;2.83;1.08;;;5.10;99.90;;;;;;5009531;28;20069;-40
2023/11/11 07:15:04;;;;;;;1.20;0.90;;;5.10;99.90;;;;;;5002485;28;20052;-39
2023/11/11 07:17:31;;;;;;;2.08;1.00;;;5.10;99.90;;;;;;5009618;28;20065;-38
2023/11/11 07:19:58;;;;;;;1.42;0.93;;;5.20;99.90;;;;;;5007706;28;20064;-40
2023/11/11 07:22:26;;;;;;;0.93;0.80;;;5.20;99.90;;;;;;5008433;28;20046;-38
2023/11/11 07:24:54;;;;;;;3.08;0.90;;;5.20;99.90;;;;;;5010561;28;20050;-39
2023/11/11 07:27:21;;;;;;;2.08;1.08;;;5.20;99.90;;;;;;5016939;28;20046;-41
2023/11/11 07:29:48;;;;;;;2.78;1.00;;;5.20;99.90;;;;;;5018946;28;20128;-38
2023/11/11 07:32:15;;;;;;;3.25;1.27;;;5.20;99.90;;;;;;5019052;28;20046;-38
2023/11/11 07:34:43;;;;;;;2.35;1.38;;;5.20;99.90;;;;;;5018057;28;20037;-39
2023/11/11 07:37:12;;;;;;;3.15;1.60;;;5.30;99.90;;;;;;5014131;28;20141;-37
2023/11/11 07:39:40;;;;;;;4.03;1.98;;;5.30;99.90;;;;;;5008388;28;20558;-40
2023/11/11 07:42:07;;;;;;;3.95;2.22;;;5.30;99.90;;;;;;5010223;28;20050;-40
2023/11/11 07:44:35;;;;;;;5.65;3.50;;;5.40;99.90;;;;;;5010893;28;20038;-39
2023/11/11 07:47:06;;;;;;;5.20;3.08;;;5.50;99.90;;;;;;5011368;28;20037;-39
2023/11/11 07:49:34;;;;;;;6.82;4.00;;;5.50;99.90;;;;;;5009456;28;20048;-41
2023/11/11 07:52:01;;;;;;;5.63;3.45;;;5.60;99.90;;;;;;5012988;28;20513;-41
2023/11/11 07:54:32;;;;;;;4.80;3.28;;;5.60;99.90;;;;;;5024606;28;20049;-40
2023/11/11 07:56:59;;;;;;;8.75;4.25;;;5.70;99.90;;;;;;5017914;28;20074;-38
2023/11/11 07:59:28;;;;;;;5.82;3.88;;;5.80;99.90;;;;;;5012122;28;20156;-38
2023/11/11 08:01:57;;;;;;;6.65;4.10;;;5.90;99.90;;;;;;5012399;28;20061;-38
2023/11/11 08:04:24;;;;;;;8.23;4.50;;;6.00;99.90;;;;;;5015697;28;20470;-40
2023/11/11 08:06:51;;;;;;;5.70;3.83;;;6.00;99.90;;;;;;5021712;28;20145;-40
2023/11/11 08:09:20;;;;;;;6.10;3.60;;;6.10;99.90;;;;;;5020869;28;20062;-41
2023/11/11 08:11:48;;;;;;;5.20;3.63;;;6.30;99.90;;;;;;5014636;28;20049;-39
2023/11/11 08:14:15;;;;;;;10.10;4.78;;;6.20;99.90;;;;;;5020700;28;20065;-39
2023/11/11 08:16:42;;;;;;;6.60;3.83;;;6.30;99.90;;;;;;5033127;28;20045;-40
2023/11/11 08:19:09;;;;;;;6.65;4.20;;;6.40;99.90;;;;;;5011409;28;20435;-41
2023/11/11 08:21:36;;;;;;;5.78;3.95;;;6.40;99.90;;;;;;5014660;28;20116;-39
2023/11/11 08:24:05;;;;;;;4.88;3.22;;;6.40;99.90;;;;;;5011874;28;20129;-41
2023/11/11 08:26:32;;;;;;;6.53;3.53;;;6.50;99.90;;;;;;5014678;28;20419;-38
2023/11/11 08:28:59;;;;;;;5.63;3.60;;;6.50;99.90;;;;;;5012559;28;20069;-41
2023/11/11 08:31:26;;;;;;;5.13;3.35;;;6.50;99.90;;;;;;5014183;28;20054;-40
2023/11/11 08:33:54;;;;;;;5.85;3.00;;;6.50;99.90;;;;;;5014392;28;20073;-41
2023/11/11 08:36:21;;;;;;;6.47;3.30;;;6.60;99.90;;;;;;5014353;28;20073;-38
2023/11/11 08:38:48;;;;;;;5.75;2.72;;;6.70;99.90;;;;;;5014557;28;20049;-38
2023/11/11 08:41:17;;;;;;;5.75;3.08;;;6.70;99.90;;;;;;5014670;28;20077;-37
2023/11/11 08:43:44;;;;;;;6.90;3.00;;;6.70;99.90;;;;;;5017504;28;20045;-40
2023/11/11 08:46:12;;;;;;;4.93;2.53;;;6.80;99.90;;;;;;5025697;28;20128;-40
2023/11/11 08:48:40;;;;;;;4.63;2.10;;;6.90;99.90;;;;;;5025624;28;20045;-41
2023/11/11 08:51:08;;;;;;;5.90;2.45;;;6.70;99.90;;;;;;5027317;28;20050;-40
2023/11/11 08:53:35;;;;;;;3.55;2.22;;;6.80;99.90;;;;;;5027587;28;20046;-38
2023/11/11 08:56:03;;;;;;;4.70;2.30;;;6.70;99.90;;;;;;5027907;28;20061;-40
2023/11/11 08:58:31;;;;;;;4.90;2.80;;;6.70;99.90;;;;;;5028021;28;20090;-41
2023/11/11 09:00:59;;;;;;;4.85;2.45;;;6.60;99.90;;;;;;5026492;28;20046;-41
2023/11/11 09:03:27;;;;;;;3.75;2.40;;;6.40;99.90;;;;;;5025214;28;20050;-41
2023/11/11 09:05:55;;;;;;;4.03;2.63;;;6.30;99.90;;;;;;5025740;28;21319;-41
2023/11/11 09:08:24;;;;;;;6.13;2.47;;;6.30;99.90;;;;;;5027512;28;20045;-42
2023/11/11 09:10:51;;;;;;;6.82;3.00;;;6.30;99.90;;;;;;5014101;28;20523;-40
2023/11/11 09:13:22;;;;;;;5.60;2.78;;;6.40;99.90;;;;;;5015773;28;20473;-42
2023/11/11 09:15:50;;;;;;;4.10;2.47;;;6.50;99.90;;;;;;5020058;28;20080;-38
2023/11/11 09:18:18;;;;;;;6.03;2.50;;;6.50;99.90;;;;;;5018959;28;20049;-39
2023/11/11 09:20:46;;;;;;;5.72;2.58;;;6.50;99.90;;;;;;5018474;28;20041;-39
2023/11/11 09:23:13;;;;;;;6.05;2.97;;;6.50;99.90;;;;;;5016237;28;20060;-41
2023/11/11 09:25:40;;;;;;;4.97;2.88;;;6.50;99.90;;;;;;5017550;28;20054;-40
2023/11/11 09:28:08;;;;;;;4.47;2.80;;;6.70;99.90;;;;;;5016733;28;20120;-42
2023/11/11 09:30:35;;;;;;;5.22;2.40;;;6.80;99.90;;;;;;5012059;28;20050;-41
2023/11/11 09:33:03;;;;;;;8.88;3.65;;;6.80;99.90;;;;;;5010078;28;20049;-39
2023/11/11 09:35:30;;;;;;;4.50;2.65;;;6.90;99.90;;;;;;5013054;28;20042;-39
2023/11/11 09:37:58;;;;;;;7.75;2.75;;;7.00;99.90;;;;;;5016478;28;20056;-38
2023/11/11 09:40:26;;;;;;;4.93;2.63;;;7.00;99.90;;;;;;5015515;28;20136;-41
2023/11/11 09:42:53;;;;;;;5.18;2.85;;;7.20;99.90;;;;;;5013497;28;20076;-41
2023/11/11 09:45:21;;;;;;;5.18;2.67;;;7.30;99.90;;;;;;5016077;28;20044;-41
2023/11/11 09:47:52;;;;;;;5.20;2.30;;;7.50;99.90;;;;;;5015621;28;20042;-38
2023/11/11 09:50:22;;;;;;;3.83;2.38;;;7.70;99.90;;;;;;5018777;28;20132;-38
2023/11/11 09:52:52;;;;;;;4.15;1.90;;;7.80;99.90;;;;;;5019081;28;20119;-38
2023/11/11 09:55:21;;;;;;;3.22;1.92;;;7.90;99.90;;;;;;5008961;28;20054;-40
2023/11/11 09:57:49;;;;;;;4.10;1.98;;;8.00;99.90;;;;;;5016665;28;20049;-38
2023/11/11 10:00:16;;;;;;;5.35;2.20;;;8.10;99.90;;;;;;5010712;28;20447;-39
2023/11/11 10:02:43;;;;;;;3.40;2.20;;;8.10;99.90;;;;;;5011604;28;20510;-41
2023/11/11 10:05:11;;;;;;;3.72;2.30;;;8.10;99.90;;;;;;5008284;28;20057;-40
2023/11/11 10:07:39;;;;;;;5.22;1.73;;;8.10;99.90;;;;;;5008939;28;20112;-38
2023/11/11 10:10:12;;;;;;;5.53;2.20;;;8.10;99.90;;;;;;5011180;28;20057;-41
2023/11/11 10:12:39;;;;;;;3.10;1.60;;;8.00;99.90;;;;;;5011901;28;20061;-42
2023/11/11 10:15:08;;;;;;;4.55;1.88;;;7.90;99.90;;;;;;5010570;28;20050;-40
2023/11/11 10:17:38;;;;;;;4.28;2.13;;;7.90;99.90;;;;;;5005656;28;20411;-37
2023/11/11 10:20:15;;;;;;;3.45;1.67;;;8.00;99.90;;;;;;5022699;28;20463;-38
2023/11/11 10:22:47;;;;;;;2.95;1.80;;;7.90;99.90;;;;;;5007204;28;20050;-38
2023/11/11 10:25:19;;;;;;;3.00;1.95;;;8.00;99.90;;;;;;5010779;28;20141;-36
2023/11/11 10:27:47;;;;;;;;;;;8.10;99.90;;;;;;5010459;28;20046;-41
2023/11/11 10:30:25;;;;;;;4.13;1.83;;;8.10;99.90;;;;;;5009574;28;20043;-40
2023/11/11 10:32:53;;;;;;;2.95;2.05;;;8.40;99.90;;;;;;5008916;28;20046;-38
2023/11/11 10:35:22;;;;;;;2.58;1.70;;;8.60;99.90;;;;;;5010456;28;20055;-40
2023/11/11 10:37:50;;;;;;;3.25;1.90;;;8.60;99.90;;;;;;5010879;28;20133;-41
2023/11/11 10:40:18;;;;;;;3.60;1.80;;;8.40;99.90;;;;;;5026145;28;20081;-38
2023/11/11 10:42:47;;;;;;;3.80;1.80;;;8.30;99.90;;;;;;5017547;28;20042;-38
2023/11/11 10:45:15;;;;;;;3.40;2.08;;;8.10;99.90;;;;;;5010136;28;20046;-37
2023/11/11 10:47:44;;;;;;;8.02;2.55;;;8.10;99.90;;;;;;5006941;28;20069;-40
2023/11/11 10:50:12;;;;;;;4.32;2.10;;;8.10;99.90;;;;;;5010137;28;20042;-39
2023/11/11 10:52:41;;;;;;;2.60;1.88;;;8.20;99.90;;;;;;5015509;28;20033;-40
2023/11/11 10:55:10;;;;;;;3.00;1.83;;;8.20;99.90;;;;;;5011398;28;20287;-38
2023/11/11 10:57:41;;;;;;;3.13;1.90;;;8.30;99.90;;;;;;5007530;28;20122;-38
2023/11/11 11:00:19;;;;;;;4.25;2.28;;;8.30;99.90;;;;;;5010420;28;20042;-39
2023/11/11 11:02:50;;;;;;;3.75;2.10;;;8.50;99.90;;;;;;5003367;28;20046;-40
2023/11/11 11:05:52;;;;;;;3.53;2.00;;;8.50;99.90;;;;;;5009079;28;20049;-38
2023/11/11 11:08:22;;;;;;;3.67;2.03;;;8.20;99.90;;;;;;4989586;28;20704;-39
2023/11/11 11:11:04;;;;;;;2.90;2.00;;;8.10;99.90;;;;;;5007279;28;20053;-38
2023/11/11 11:13:33;;;;;;;2.83;2.08;;;7.90;99.90;;;;;;5006559;28;20526;-39
2023/11/11 11:16:01;;;;;;;2.78;1.88;;;7.70;99.90;;;;;;5006767;28;20133;-38
2023/11/11 11:18:28;;;;;;;2.72;1.80;;;7.70;99.90;;;;;;5005559;28;20056;-38
2023/11/11 11:21:02;;;;;;;2.80;1.92;;;7.60;99.90;;;;;;5004142;28;20475;-40
2023/11/11 11:23:37;;;;;;;3.42;2.08;;;7.60;99.90;;;;;;5008259;28;20361;-38
2023/11/11 11:26:04;;;;;;;3.22;2.30;;;7.60;99.90;;;;;;5009351;28;20152;-39
2023/11/11 11:28:31;;;;;;;4.63;2.10;;;7.60;99.90;;;;;;5009519;28;20042;-38
2023/11/11 11:31:03;;;;;;;4.00;2.35;;;7.50;99.90;;;;;;5009173;28;20046;-38
2023/11/11 11:33:35;;;;;;;4.22;2.30;;;7.60;99.90;;;;;;5011735;28;20065;-41
2023/11/11 11:36:07;;;;;;;4.47;2.20;;;8.00;99.90;;;;;;5021738;28;20062;-42
2023/11/11 11:38:35;;;;;;;3.33;2.33;;;8.20;99.90;;;;;;5022181;28;20057;-39
2023/11/11 11:41:09;;;;;;;4.10;2.50;;;8.80;99.90;;;;;;5012667;28;20054;-41
2023/11/11 11:43:39;;;;;;;3.28;2.20;;;9.50;99.90;;;;;;5009181;28;20050;-37
2023/11/11 11:46:07;;;;;;;4.55;2.78;;;10.00;99.90;;;;;;5009135;28;20041;-42
2023/11/11 11:48:36;;;;;;;5.30;2.80;;;9.80;99.90;;;;;;5009546;28;20049;-41
2023/11/11 11:51:08;;;;;;;6.20;3.28;;;9.00;99.90;;;;;;5021802;28;20052;-41
2023/11/11 11:53:38;;;;;;;6.45;3.03;;;8.60;99.90;;;;;;5022744;28;20045;-41
2023/11/11 11:56:06;;;;;;;6.18;3.33;;;8.30;99.90;;;;;;5024806;28;20058;-38
2023/11/11 11:58:47;;;;;;;5.68;3.30;;;8.00;99.90;;;;;;5011578;28;20167;-39
2023/11/11 12:01:25;;;;;;;5.90;4.00;;;8.00;99.90;;;;;;5011010;28;20046;-35
2023/11/11 12:03:54;;;;;;;9.07;3.35;;;7.90;99.90;;;;;;5013708;28;20054;-41
2023/11/11 12:06:23;;;;;;;6.40;3.28;;;8.00;99.90;;;;;;5021845;28;20041;-36
2023/11/11 12:09:01;;;;;;;6.10;3.13;;;7.80;99.90;;;;;;5023320;28;20049;-39
2023/11/11 12:11:33;;;;;;;6.15;3.30;;;8.00;99.90;;;;;;5018792;28;20049;-38
2023/11/11 12:14:05;;;;;;;8.77;3.40;;;8.00;99.90;;;;;;5016210;28;20049;-39
2023/11/11 12:16:47;;;;;;;;;;;8.00;99.90;;;;;;5015906;28;20046;-38
2023/11/11 12:19:21;;;;;;;5.60;3.40;;;8.10;99.90;;;;;;5013412;28;20314;-37
2023/11/11 12:21:50;;;;;;;6.65;3.35;;;8.10;99.90;;;;;;5013797;28;20061;-41
2023/11/11 12:24:24;;;;;;;4.93;3.30;;;8.30;99.90;;;;;;5013490;28;20058;-39
2023/11/11 12:26:56;;;;;;;5.82;3.30;;;8.40;99.90;;;;;;5012381;28;20104;-38
2023/11/11 12:29:28;;;;;;;5.03;3.33;;;8.50;99.90;;;;;;5014753;28;20196;-37
2023/11/11 12:31:56;;;;;;;5.72;3.00;;;9.60;99.90;;;;;;5014445;28;20042;-41
2023/11/11 12:34:27;;;;;;;5.15;3.20;;;10.90;99.90;;;;;;5011043;28;20136;-38
2023/11/11 12:36:57;;;;;;;4.72;3.22;;;11.90;99.90;;;;;;5013240;28;20054;-38
2023/11/11 12:39:24;;;;;;;5.15;3.47;;;12.20;99.90;;;;;;5013950;28;20046;-41
2023/11/11 12:41:56;;;;;;;4.18;3.13;;;11.50;99.90;;;;;;5012855;28;20080;-40
2023/11/11 12:44:25;;;;;;;5.25;3.67;;;10.20;99.90;;;;;;5023247;28;20049;-37
2023/11/11 12:46:55;;;;;;;5.05;3.53;;;9.60;99.90;;;;;;5024532;28;20109;-40
2023/11/11 12:49:27;;;;;;;3.78;3.13;;;9.10;99.90;;;;;;5018339;28;20056;-41
2023/11/11 12:51:58;;;;;;;4.93;3.35;;;8.60;99.90;;;;;;5014746;28;20042;-40
2023/11/11 12:54:34;;;;;;;7.00;2.95;;;7.90;99.90;;;;;;5022697;28;20069;-40
2023/11/11 12:57:03;;;;;;;4.53;2.90;;;7.70;99.90;;;;;;5016575;28;20046;-42
2023/11/11 12:59:30;;;;;;;4.22;2.92;;;8.50;99.90;;;;;;5013660;28;20056;-41
2023/11/11 13:02:05;;;;;;;4.53;2.80;;;8.70;99.90;;;;;;5013364;28;20077;-40
2023/11/11 13:04:32;;;;;;;3.88;2.70;;;8.80;99.90;;;;;;5014800;28;20386;-40